createdAt,value
2022-12-01T00:02:21.629Z,91617.25
2022-12-01T00:04:49.063Z,91607.91
2022-12-01T00:07:15.722Z,91624.25
2022-12-01T00:10:00.911Z,91611.81
2022-12-01T00:12:27.601Z,91618.03
2022-12-01T00:15:01.051Z,91612.81
2022-12-01T00:17:29.270Z,91611.50
2022-12-01T00:19:56.461Z,91602.69
2022-12-01T00:22:23.218Z,91609.69
2022-12-01T00:24:49.834Z,91602.97
2022-12-01T00:27:16.592Z,91596.47
2022-12-01T00:29:43.164Z,91601.66
2022-12-01T00:32:09.928Z,91604.50
2022-12-01T00:34:38.032Z,91593.63
2022-12-01T00:37:05.130Z,91600.63
2022-12-01T00:39:31.844Z,91600.88
2022-12-01T00:41:58.508Z,91600.34
2022-12-01T00:44:25.227Z,91598.78
2022-12-01T00:46:51.853Z,91600.34
2022-12-01T00:49:18.521Z,91599.84
2022-12-01T00:51:45.073Z,91598.28
2022-12-01T00:54:11.717Z,91597.78
2022-12-01T00:56:38.339Z,91603.47
2022-12-01T00:59:05.009Z,91608.69
2022-12-01T01:01:32.050Z,91605.56
2022-12-01T01:03:58.698Z,91619.84
2022-12-01T01:06:25.413Z,91611.28
2022-12-01T01:08:52.025Z,91615.16
2022-12-01T01:11:18.752Z,91612.81
2022-12-01T01:13:45.337Z,91609.22
2022-12-01T01:16:15.302Z,91610.75
2022-12-01T01:18:42.124Z,91604.50
2022-12-01T01:21:14.539Z,91603.22
2022-12-01T01:23:41.275Z,91599.81
2022-12-01T01:26:11.820Z,91600.59
2022-12-01T01:28:41.612Z,91601.91
2022-12-01T01:31:09.056Z,91601.91
2022-12-01T01:33:36.094Z,91596.19
2022-12-01T01:36:03.280Z,91599.31
2022-12-01T01:38:30.085Z,91590.50
2022-12-01T01:40:56.737Z,91587.38
2022-12-01T01:43:42.626Z,91583.22
2022-12-01T01:46:15.450Z,91587.91
2022-12-01T01:48:43.532Z,91588.94
2022-12-01T01:51:10.292Z,91586.59
2022-12-01T01:53:36.957Z,91600.38
2022-12-01T01:56:03.853Z,91587.63
2022-12-01T01:58:30.933Z,91590.22
2022-12-01T02:00:57.651Z,91589.97
2022-12-01T02:03:24.304Z,91584.28
2022-12-01T02:05:50.948Z,91589.97
2022-12-01T02:08:17.925Z,91586.84
2022-12-01T02:11:09.418Z,91593.88
2022-12-01T02:13:46.639Z,91583.75
2022-12-01T02:16:18.378Z,91589.47
2022-12-01T02:18:48.573Z,91584.78
2022-12-01T02:21:53.473Z,91588.44
2022-12-01T02:24:38.201Z,91593.34
2022-12-01T02:27:16.613Z,91586.88
2022-12-01T02:30:01.454Z,91579.06
2022-12-01T02:32:36.332Z,91583.22
2022-12-01T02:35:29.278Z,91578.03
2022-12-01T02:38:04.634Z,91585.56
2022-12-01T02:40:34.245Z,91574.91
2022-12-01T02:43:05.498Z,91568.41
2022-12-01T02:45:32.141Z,91578.81
2022-12-01T02:48:01.522Z,91569.19
2022-12-01T02:50:29.160Z,91561.66
2022-12-01T02:52:55.808Z,91567.63
2022-12-01T02:55:22.520Z,91564.00
2022-12-01T02:57:49.090Z,91560.91
2022-12-01T03:00:16.683Z,91565.03
2022-12-01T03:03:11.188Z,91568.94
2022-12-01T03:05:52.702Z,91574.91
2022-12-01T03:09:01.315Z,91572.56
2022-12-01T03:11:42.127Z,91574.91
2022-12-01T03:14:22.530Z,91572.84
2022-12-01T03:16:53.253Z,91571.28
2022-12-01T03:19:40.335Z,91578.81
2022-12-01T03:22:11.072Z,91568.44
2022-12-01T03:24:37.928Z,91571.78
2022-12-01T03:27:04.642Z,91570.25
2022-12-01T03:29:41.341Z,91566.09
2022-12-01T03:32:28.775Z,91557.25
2022-12-01T03:35:16.150Z,91563.50
2022-12-01T03:37:57.465Z,91557.28
2022-12-01T03:40:27.239Z,91553.34
2022-12-01T03:43:07.479Z,91555.44
2022-12-01T03:46:00.117Z,91560.13
2022-12-01T03:48:26.857Z,91558.28
2022-12-01T03:51:16.350Z,91564.03
2022-12-01T03:54:07.321Z,91572.81
2022-12-01T03:56:37.588Z,91568.16
2022-12-01T03:59:05.035Z,91568.16
2022-12-01T04:01:35.605Z,91555.16
2022-12-01T04:04:10.398Z,91565.06
2022-12-01T04:06:37.274Z,91568.44
2022-12-01T04:09:04.098Z,91565.06
2022-12-01T04:11:49.292Z,91553.63
2022-12-01T04:14:15.890Z,91557.78
2022-12-01T04:16:42.599Z,91552.06
2022-12-01T04:19:09.293Z,91546.88
2022-12-01T04:21:36.026Z,91544.78
2022-12-01T04:24:02.764Z,91551.53
2022-12-01T04:26:33.445Z,91554.91
2022-12-01T04:29:01.305Z,91559.34
2022-12-01T04:31:28.157Z,91549.19
2022-12-01T04:33:55.953Z,91553.88
2022-12-01T04:36:23.729Z,91558.56
2022-12-01T04:38:50.386Z,91548.44
2022-12-01T04:41:17.158Z,91548.94
2022-12-01T04:43:43.788Z,91549.97
2022-12-01T04:46:10.731Z,91540.38
2022-12-01T04:48:38.036Z,91547.38
2022-12-01T04:51:05.826Z,91560.88
2022-12-01T04:53:33.029Z,91554.66
2022-12-01T04:56:00.557Z,91553.09
2022-12-01T04:58:31.094Z,91564.00
2022-12-01T05:01:05.453Z,91569.19
2022-12-01T05:03:32.168Z,91571.53
2022-12-01T05:06:06.253Z,91565.81
2022-12-01T05:08:34.139Z,91566.06
2022-12-01T05:11:01.035Z,91561.66
2022-12-01T05:13:27.889Z,91571.78
2022-12-01T05:15:54.582Z,91566.34
2022-12-01T05:18:21.397Z,91573.09
2022-12-01T05:20:57.207Z,91567.38
2022-12-01T05:23:28.996Z,91568.66
2022-12-01T05:25:55.803Z,91570.75
2022-12-01T05:28:23.087Z,91567.63
2022-12-01T05:30:49.965Z,91569.19
2022-12-01T05:33:16.982Z,91566.09
2022-12-01T05:35:43.630Z,91561.13
2022-12-01T05:38:10.283Z,91561.66
2022-12-01T05:40:37.438Z,91562.94
2022-12-01T05:43:04.213Z,91562.44
2022-12-01T05:45:30.964Z,91562.97
2022-12-01T05:47:58.167Z,91564.03
2022-12-01T05:50:25.051Z,91561.91
2022-12-01T05:52:51.718Z,91557.25
2022-12-01T05:55:18.531Z,91563.75
2022-12-01T05:57:46.137Z,91560.38
2022-12-01T06:00:13.321Z,91560.91
2022-12-01T06:02:40.744Z,91553.88
2022-12-01T06:05:08.038Z,91563.47
2022-12-01T06:07:35.742Z,91568.16
2022-12-01T06:10:02.604Z,91568.44
2022-12-01T06:12:29.194Z,91567.63
2022-12-01T06:14:55.861Z,91573.34
2022-12-01T06:17:22.561Z,91569.72
2022-12-01T06:19:49.409Z,91574.38
2022-12-01T06:22:16.285Z,91570.22
2022-12-01T06:24:42.916Z,91572.31
2022-12-01T06:27:09.852Z,91571.78
2022-12-01T06:29:41.845Z,91574.63
2022-12-01T06:32:08.919Z,91571.56
2022-12-01T06:34:35.716Z,91573.09
2022-12-01T06:37:02.408Z,91577.53
2022-12-01T06:39:29.089Z,91573.34
2022-12-01T06:41:55.659Z,91581.13
2022-12-01T06:44:22.385Z,91569.19
2022-12-01T06:46:52.885Z,91575.94
2022-12-01T06:49:19.717Z,91576.47
2022-12-01T06:51:46.433Z,91578.03
2022-12-01T06:54:13.201Z,91585.81
2022-12-01T06:56:40.508Z,91582.94
2022-12-01T06:59:07.869Z,91584.53
2022-12-01T07:01:34.786Z,91575.94
2022-12-01T07:04:01.535Z,91585.81
2022-12-01T07:06:29.828Z,91584.00
2022-12-01T07:08:56.718Z,91589.19
2022-12-01T07:11:23.386Z,91591.28
2022-12-01T07:13:54.144Z,91587.13
2022-12-01T07:16:20.866Z,91582.94
2022-12-01T07:18:47.561Z,91587.88
2022-12-01T07:21:14.787Z,91595.13
2022-12-01T07:23:41.783Z,91596.97
2022-12-01T07:26:13.787Z,91590.50
2022-12-01T07:28:40.520Z,91594.66
2022-12-01T07:31:10.872Z,91589.72
2022-12-01T07:33:37.756Z,91591.00
2022-12-01T07:36:04.923Z,91596.47
2022-12-01T07:38:32.121Z,91596.22
2022-12-01T07:41:08.229Z,91602.44
2022-12-01T07:43:35.103Z,91589.72
2022-12-01T07:46:17.203Z,91596.47
2022-12-01T07:48:47.262Z,91602.44
2022-12-01T07:51:17.427Z,91603.50
2022-12-01T07:53:45.069Z,91603.50
2022-12-01T07:56:11.819Z,91605.56
2022-12-01T07:58:38.616Z,91613.34
2022-12-01T08:01:08.514Z,91608.41
2022-12-01T08:03:35.702Z,91602.44
2022-12-01T08:06:02.924Z,91611.78
2022-12-01T08:08:29.847Z,91601.38
2022-12-01T08:10:59.950Z,91615.69
2022-12-01T08:13:26.653Z,91606.59
2022-12-01T08:15:53.303Z,91600.88
2022-12-01T08:18:20.005Z,91597.22
2022-12-01T08:20:46.680Z,91598.00
2022-12-01T08:23:13.347Z,91593.34
2022-12-01T08:25:39.936Z,91601.13
2022-12-01T08:28:06.689Z,91599.56
2022-12-01T08:30:33.618Z,91605.81
2022-12-01T08:33:00.319Z,91603.22
2022-12-01T08:35:28.152Z,91609.72
2022-12-01T08:37:54.755Z,91606.59
2022-12-01T08:40:21.859Z,91604.53
2022-12-01T08:42:48.592Z,91606.59
2022-12-01T08:45:15.274Z,91598.25
2022-12-01T08:47:41.829Z,91601.09
2022-12-01T08:50:08.924Z,91602.41
2022-12-01T08:52:35.617Z,91605.03
2022-12-01T08:55:02.383Z,91594.09
2022-12-01T08:57:29.932Z,91587.56
2022-12-01T08:59:56.579Z,91595.91
2022-12-01T09:02:23.652Z,91600.88
2022-12-01T09:04:50.653Z,91587.34
2022-12-01T09:07:21.518Z,91594.63
2022-12-01T09:09:52.611Z,91592.53
2022-12-01T09:12:19.355Z,91592.81
2022-12-01T09:14:48.290Z,91582.69
2022-12-01T09:17:15.766Z,91584.75
2022-12-01T09:19:43.071Z,91576.97
2022-12-01T09:22:10.383Z,91573.84
2022-12-01T09:24:37.176Z,91580.63
2022-12-01T09:27:04.147Z,91577.50
2022-12-01T09:29:31.004Z,91569.19
2022-12-01T09:31:58.418Z,91582.44
2022-12-01T09:34:25.308Z,91584.00
2022-12-01T09:36:51.961Z,91572.81
2022-12-01T09:39:19.813Z,91567.63
2022-12-01T09:41:51.086Z,91566.09
2022-12-01T09:44:35.936Z,91566.59
2022-12-01T09:47:19.109Z,91569.72
2022-12-01T09:50:11.829Z,91556.75
2022-12-01T09:52:49.065Z,91547.91
2022-12-01T09:55:17.552Z,91549.47
2022-12-01T09:57:44.437Z,91547.09
2022-12-01T10:00:19.596Z,91549.97
2022-12-01T10:02:51.554Z,91548.91
2022-12-01T10:05:22.787Z,91551.50
2022-12-01T10:07:55.345Z,91551.50
2022-12-01T10:10:30.316Z,91548.38
2022-12-01T10:12:57.060Z,91553.34
2022-12-01T10:15:42.874Z,91546.31
2022-12-01T10:18:43.603Z,91544.75
2022-12-01T10:21:19.042Z,91544.75
2022-12-01T10:24:04.373Z,91538.56
2022-12-01T10:27:01.886Z,91542.19
2022-12-01T10:29:32.113Z,91543.25
2022-12-01T10:32:03.259Z,91537.28
2022-12-01T10:34:33.375Z,91544.00
2022-12-01T10:37:00.064Z,91542.47
2022-12-01T10:39:30.365Z,91537.25
2022-12-01T10:42:10.671Z,91545.84
2022-12-01T10:44:37.384Z,91532.34
2022-12-01T10:47:04.117Z,91540.38
2022-12-01T10:49:39.012Z,91539.06
2022-12-01T10:52:05.984Z,91529.47
2022-12-01T10:54:37.862Z,91533.91
2022-12-01T10:57:05.310Z,91527.66
2022-12-01T10:59:44.340Z,91532.56
2022-12-01T11:02:21.788Z,91524.78
2022-12-01T11:05:18.733Z,91527.13
2022-12-01T11:07:48.396Z,91525.06
2022-12-01T11:10:31.718Z,91521.94
2022-12-01T11:13:08.283Z,91517.03
2022-12-01T11:15:39.660Z,91523.25
2022-12-01T11:18:20.234Z,91519.88
2022-12-01T11:20:46.927Z,91519.34
2022-12-01T11:23:24.386Z,91518.56
2022-12-01T11:26:32.366Z,91520.66
2022-12-01T11:29:06.907Z,91514.16
2022-12-01T11:31:46.888Z,91518.31
2022-12-01T11:34:26.222Z,91524.81
2022-12-01T11:37:04.049Z,91521.94
2022-12-01T11:39:35.399Z,91505.84
2022-12-01T11:42:06.616Z,91511.06
2022-12-01T11:47:23.541Z,91503.53
2022-12-01T11:50:01.880Z,91512.09
2022-12-01T11:52:33.514Z,91502.22
2022-12-01T11:55:21.060Z,91505.84
2022-12-01T11:57:50.403Z,91507.16
2022-12-01T12:00:18.549Z,91512.59
2022-12-01T12:03:11.023Z,91505.06
2022-12-01T12:05:45.468Z,91506.38
2022-12-01T12:08:18.078Z,91513.41
2022-12-01T12:11:06.099Z,91507.94
2022-12-01T12:14:14.010Z,91516.22
2022-12-01T12:16:57.314Z,91513.13
2022-12-01T12:23:08.566Z,91504.81
2022-12-01T12:26:06.353Z,91513.63
2022-12-01T12:29:00.716Z,91511.03
2022-12-01T12:31:42.493Z,91512.59
2022-12-01T12:34:19.178Z,91513.13
2022-12-01T12:36:58.469Z,91508.44
2022-12-01T12:39:28.038Z,91503.78
2022-12-01T12:41:55.755Z,91516.25
2022-12-01T12:44:48.548Z,91509.72
2022-12-01T12:47:30.550Z,91511.81
2022-12-01T12:50:06.261Z,91499.63
2022-12-01T12:52:40.636Z,91504.81
2022-12-01T12:55:24.973Z,91501.97
2022-12-01T12:57:56.898Z,91511.06
2022-12-01T13:00:27.808Z,91503.78
2022-12-01T13:02:58.697Z,91512.34
2022-12-01T13:05:47.602Z,91513.13
2022-12-01T13:08:25.357Z,91514.69
2022-12-01T13:10:54.979Z,91508.44
2022-12-01T13:13:27.488Z,91502.75
2022-12-01T13:15:55.084Z,91512.06
2022-12-01T13:19:05.019Z,91514.94
2022-12-01T13:21:42.206Z,91519.34
2022-12-01T13:24:12.334Z,91515.97
2022-12-01T13:26:39.015Z,91517.00
2022-12-01T13:29:06.937Z,91523.22
2022-12-01T13:31:48.029Z,91518.84
2022-12-01T13:34:41.343Z,91519.34
2022-12-01T13:37:08.884Z,91524.03
2022-12-01T13:39:39.807Z,91518.31
2022-12-01T13:42:25.555Z,91518.84
2022-12-01T13:44:57.278Z,91519.63
2022-12-01T13:47:31.574Z,91516.00
2022-12-01T13:49:58.402Z,91510.00
2022-12-01T13:52:28.374Z,91511.06
2022-12-01T13:55:10.762Z,91507.69
2022-12-01T13:58:04.020Z,91514.91
2022-12-01T14:00:32.271Z,91502.25
2022-12-01T14:03:17.526Z,91500.66
2022-12-01T14:05:53.334Z,91498.59
2022-12-01T14:08:24.043Z,91503.53
2022-12-01T14:10:58.528Z,91505.84
2022-12-01T14:13:25.549Z,91508.97
2022-12-01T14:16:00.209Z,91512.09
2022-12-01T14:18:38.388Z,91504.81
2022-12-01T14:21:07.228Z,91511.81
2022-12-01T14:23:35.218Z,91512.09
2022-12-01T14:26:11.393Z,91516.75
2022-12-01T14:28:56.124Z,91517.28
2022-12-01T14:31:23.903Z,91523.25
2022-12-01T14:34:13.185Z,91536.22
2022-12-01T14:36:43.672Z,91542.44
2022-12-01T14:39:14.824Z,91542.19
2022-12-01T14:41:52.234Z,91549.22
2022-12-01T14:44:33.510Z,91548.94
2022-12-01T14:47:00.244Z,91553.38
2022-12-01T14:49:31.538Z,91549.97
2022-12-01T14:52:05.292Z,91546.84
2022-12-01T14:54:35.038Z,91535.94
2022-12-01T14:57:07.402Z,91530.25
2022-12-01T14:59:35.725Z,91521.97
2022-12-01T15:02:09.208Z,91519.34
2022-12-01T15:05:14.262Z,91529.47
2022-12-01T15:07:42.530Z,91538.56
2022-12-01T15:10:35.722Z,91540.91
2022-12-01T15:13:27.859Z,91543.75
2022-12-01T15:15:57.121Z,91541.94
2022-12-01T15:18:31.577Z,91537.50
2022-12-01T15:21:07.689Z,91542.19
2022-12-01T15:23:34.370Z,91540.91
2022-12-01T15:26:01.047Z,91540.91
2022-12-01T15:28:32.805Z,91546.88
2022-12-01T15:31:00.326Z,91548.97
2022-12-01T15:33:28.370Z,91546.88
2022-12-01T15:35:57.632Z,91546.09
2022-12-01T15:38:27.320Z,91542.69
2022-12-01T15:41:49.725Z,91548.69
2022-12-01T15:43:41.414Z,91555.72
2022-12-01T15:46:15.406Z,91557.78
2022-12-01T15:48:42.360Z,91559.34
2022-12-01T15:51:10.974Z,91567.91
2022-12-01T15:53:40.192Z,91559.84
2022-12-01T15:56:07.884Z,91563.47
2022-12-01T15:58:40.104Z,91563.50
2022-12-01T16:01:13.388Z,91572.06
2022-12-01T16:03:58.987Z,91563.22
2022-12-01T16:06:28.735Z,91580.63
2022-12-01T16:09:07.154Z,91577.75
2022-12-01T16:11:34.074Z,91576.97
2022-12-01T16:14:01.695Z,91578.81
2022-12-01T16:16:31.416Z,91581.88
2022-12-01T16:19:09.916Z,91582.16
2022-12-01T16:21:49.639Z,91583.19
2022-12-01T16:24:36.775Z,91586.34
2022-12-01T16:27:05.630Z,91582.16
2022-12-01T16:29:36.812Z,91592.56
2022-12-01T16:32:38.240Z,91586.84
2022-12-01T16:35:24.606Z,91591.53
2022-12-01T16:37:51.276Z,91589.44
2022-12-01T16:40:18.052Z,91601.91
2022-12-01T16:42:45.245Z,91590.50
2022-12-01T16:45:15.568Z,91603.19
2022-12-01T16:47:42.568Z,91593.59
2022-12-01T16:50:19.908Z,91593.34
2022-12-01T16:52:46.659Z,91597.25
2022-12-01T16:55:36.643Z,91595.16
2022-12-01T16:58:03.317Z,91597.25
2022-12-01T17:00:30.053Z,91600.34
2022-12-01T17:02:57.168Z,91600.88
2022-12-01T17:05:24.109Z,91598.53
2022-12-01T17:07:50.878Z,91609.22
2022-12-01T17:10:17.856Z,91601.13
2022-12-01T17:12:44.613Z,91597.78
2022-12-01T17:15:11.423Z,91603.47
2022-12-01T17:17:38.186Z,91607.91
2022-12-01T17:20:05.843Z,91612.81
2022-12-01T17:22:32.565Z,91610.22
2022-12-01T17:24:59.525Z,91611.78
2022-12-01T17:27:27.720Z,91611.78
2022-12-01T17:29:55.034Z,91615.69
2022-12-01T17:32:21.839Z,91617.50
2022-12-01T17:34:48.949Z,91619.06
2022-12-01T17:37:20.678Z,91613.59
2022-12-01T17:39:47.819Z,91620.88
2022-12-01T17:42:14.525Z,91629.72
2022-12-01T17:44:41.208Z,91627.09
2022-12-01T17:47:07.931Z,91619.84
2022-12-01T17:49:35.906Z,91629.16
2022-12-01T17:52:03.777Z,91624.50
2022-12-01T17:54:30.755Z,91624.78
2022-12-01T17:56:57.394Z,91619.59
2022-12-01T17:59:24.080Z,91622.19
2022-12-01T18:01:50.736Z,91627.88
2022-12-01T18:04:17.403Z,91622.19
2022-12-01T18:06:46.007Z,91621.91
2022-12-01T18:09:15.965Z,91624.25
2022-12-01T18:11:42.604Z,91622.69
2022-12-01T18:14:09.332Z,91621.91
2022-12-01T18:16:36.060Z,91629.97
2022-12-01T18:19:03.178Z,91627.88
2022-12-01T18:21:29.860Z,91622.69
2022-12-01T18:24:01.024Z,91633.09
2022-12-01T18:26:28.130Z,91631.00
2022-12-01T18:29:02.096Z,91632.56
2022-12-01T18:31:28.965Z,91626.84
2022-12-01T18:34:02.581Z,91638.00
2022-12-01T18:36:29.685Z,91629.97
2022-12-01T18:38:57.587Z,91631.50
2022-12-01T18:41:24.402Z,91642.66
2022-12-01T18:43:51.069Z,91638.25
2022-12-01T18:46:18.833Z,91640.84
2022-12-01T18:48:50.155Z,91636.69
2022-12-01T18:51:16.980Z,91633.59
2022-12-01T18:53:45.485Z,91641.38
2022-12-01T18:56:12.262Z,91634.63
2022-12-01T18:58:39.257Z,91643.69
2022-12-01T19:01:20.920Z,91650.44
2022-12-01T19:03:47.804Z,91649.19
2022-12-01T19:06:14.638Z,91645.06
2022-12-01T19:08:41.364Z,91653.34
2022-12-01T19:11:08.237Z,91646.31
2022-12-01T19:13:35.103Z,91649.19
2022-12-01T19:16:17.842Z,91646.59
2022-12-01T19:18:44.788Z,91654.91
2022-12-01T19:21:13.402Z,91659.56
2022-12-01T19:23:40.106Z,91656.41
2022-12-01T19:26:07.764Z,91655.38
2022-12-01T19:28:34.828Z,91658.78
2022-12-01T19:31:05.908Z,91657.50
2022-12-01T19:33:32.582Z,91647.88
2022-12-01T19:36:07.640Z,91659.31
2022-12-01T19:38:34.340Z,91655.13
2022-12-01T19:41:01.080Z,91655.44
2022-12-01T19:43:27.925Z,91653.06
2022-12-01T19:45:54.574Z,91655.13
2022-12-01T19:48:21.241Z,91655.44
2022-12-01T19:50:47.878Z,91651.00
2022-12-01T19:53:14.517Z,91662.66
2022-12-01T19:55:41.100Z,91662.41
2022-12-01T19:58:07.837Z,91668.13
2022-12-01T20:00:34.580Z,91661.94
2022-12-01T20:03:01.594Z,91668.91
2022-12-01T20:05:28.290Z,91668.41
2022-12-01T20:07:54.902Z,91665.03
2022-12-01T20:10:21.756Z,91662.19
2022-12-01T20:12:48.523Z,91669.44
2022-12-01T20:15:15.674Z,91663.19
2022-12-01T20:17:42.644Z,91667.34
2022-12-01T20:20:10.458Z,91667.09
2022-12-01T20:22:37.253Z,91667.38
2022-12-01T20:25:04.781Z,91676.72
2022-12-01T20:27:31.541Z,91679.56
2022-12-01T20:29:58.186Z,91673.09
2022-12-01T20:32:25.063Z,91687.09
2022-12-01T20:34:51.858Z,91689.44
2022-12-01T20:37:18.708Z,91689.97
2022-12-01T20:39:45.566Z,91694.38
2022-12-01T20:42:12.301Z,91684.50
2022-12-01T20:44:40.095Z,91702.47
2022-12-01T20:47:06.857Z,91691.03
2022-12-01T20:49:33.497Z,91702.69
2022-12-01T20:52:00.076Z,91696.75
2022-12-01T20:54:28.692Z,91696.97
2022-12-01T20:56:56.164Z,91699.56
2022-12-01T20:59:22.902Z,91699.56
2022-12-01T21:01:49.550Z,91708.41
2022-12-01T21:04:16.249Z,91718.78
2022-12-01T21:06:43.003Z,91710.25
2022-12-01T21:09:09.750Z,91711.00
2022-12-01T21:12:06.125Z,91717.19
2022-12-01T21:14:35.777Z,91721.34
2022-12-01T21:17:32.171Z,91722.41
2022-12-01T21:20:21.840Z,91718.78
2022-12-01T21:22:49.820Z,91723.41
2022-12-01T21:25:18.986Z,91719.81
2022-12-01T21:27:46.614Z,91731.25
2022-12-01T21:30:21.963Z,91721.91
2022-12-01T21:32:49.248Z,91730.72
2022-12-01T21:35:24.846Z,91731.25
2022-12-01T21:37:54.746Z,91738.50
2022-12-01T21:40:25.420Z,91736.44
2022-12-01T21:42:52.083Z,91741.13
2022-12-01T21:45:26.222Z,91738.50
2022-12-01T21:47:52.936Z,91740.56
2022-12-01T21:50:23.542Z,91741.13
2022-12-01T21:52:50.385Z,91742.16
2022-12-01T21:55:16.953Z,91747.09
2022-12-01T21:57:47.283Z,91731.31
2022-12-01T22:00:23.352Z,91729.72
2022-12-01T22:02:51.983Z,91737.22
2022-12-01T22:05:42.868Z,91732.78
2022-12-01T22:08:12.551Z,91733.34
2022-12-01T22:10:58.573Z,91733.84
2022-12-01T22:13:32.942Z,91735.91
2022-12-01T22:15:59.592Z,91738.25
2022-12-01T22:18:39.626Z,91737.50
2022-12-01T22:21:27.464Z,91737.47
2022-12-01T22:24:23.239Z,91726.09
2022-12-01T22:26:53.116Z,91730.75
2022-12-01T22:29:30.854Z,91729.94
2022-12-01T22:32:23.941Z,91729.66
2022-12-01T22:34:55.766Z,91730.19
2022-12-01T22:37:33.160Z,91727.59
2022-12-01T22:39:59.733Z,91731.50
2022-12-01T22:42:33.497Z,91729.72
2022-12-01T22:45:19.196Z,91728.16
2022-12-01T22:47:45.754Z,91732.28
2022-12-01T22:50:29.636Z,91729.69
2022-12-01T22:52:59.904Z,91723.19
2022-12-01T22:55:26.538Z,91722.41
2022-12-01T22:57:53.253Z,91721.34
2022-12-01T23:00:25.423Z,91717.75
2022-12-01T23:02:53.125Z,91720.09
2022-12-01T23:05:30.085Z,91722.16
2022-12-01T23:07:57.212Z,91719.03
2022-12-01T23:10:31.465Z,91725.03
2022-12-01T23:13:01.192Z,91724.50
2022-12-01T23:15:37.232Z,91725.53
2022-12-01T23:18:12.936Z,91722.41
2022-12-01T23:20:40.159Z,91715.69
2022-12-01T23:23:17.806Z,91711.50
2022-12-01T23:25:44.724Z,91717.22
2022-12-01T23:28:11.516Z,91716.47
2022-12-01T23:30:39.641Z,91718.53
2022-12-01T23:33:14.228Z,91716.19
2022-12-01T23:35:58.739Z,91709.47
2022-12-01T23:38:29.518Z,91717.00
2022-12-01T23:40:58.336Z,91715.13
2022-12-01T23:43:29.808Z,91717.50
2022-12-01T23:46:09.852Z,91716.69
2022-12-01T23:48:39.740Z,91721.13
2022-12-01T23:51:23.157Z,91722.44
2022-12-01T23:53:50.493Z,91722.97
2022-12-01T23:56:20.137Z,91730.72
2022-12-01T23:58:46.758Z,91723.47
